createdAt,value
2022-08-09T00:00:59.093Z,23.80
2022-08-09T00:04:06.251Z,23.80
2022-08-09T00:06:22.733Z,23.70
2022-08-09T00:08:52.025Z,23.70
2022-08-09T00:11:24.856Z,23.70
2022-08-09T00:13:53.705Z,23.70
2022-08-09T00:16:26.197Z,23.70
2022-08-09T00:19:09.396Z,23.70
2022-08-09T00:21:38.801Z,23.70
2022-08-09T00:24:24.980Z,23.70
2022-08-09T00:26:57.232Z,23.60
2022-08-09T00:29:39.665Z,23.60
2022-08-09T00:32:13.825Z,23.60
2022-08-09T00:34:55.651Z,23.60
2022-08-09T00:37:24.009Z,23.50
2022-08-09T00:40:13.263Z,23.50
2022-08-09T00:44:24.880Z,23.60
2022-08-09T00:45:29.359Z,23.60
2022-08-09T00:47:57.702Z,23.50
2022-08-09T00:50:29.014Z,23.50
2022-08-09T00:52:57.303Z,23.50
2022-08-09T00:56:03.194Z,23.50
2022-08-09T00:58:25.556Z,23.50
2022-08-09T01:00:58.961Z,23.50
2022-08-09T01:03:40.860Z,23.50
2022-08-09T01:06:21.905Z,23.40
2022-08-09T01:09:03.510Z,23.40
2022-08-09T01:11:55.726Z,23.40
2022-08-09T01:14:31.429Z,23.40
2022-08-09T01:17:05.350Z,23.40
2022-08-09T01:19:51.567Z,23.40
2022-08-09T01:22:41.014Z,23.40
2022-08-09T01:25:22.168Z,23.40
2022-08-09T01:27:57.783Z,23.30
2022-08-09T01:30:35.704Z,23.30
2022-08-09T01:33:17.670Z,23.30
2022-08-09T01:35:51.935Z,23.30
2022-08-09T01:38:24.625Z,23.30
2022-08-09T01:41:05.380Z,23.30
2022-08-09T01:43:50.126Z,23.20
2022-08-09T01:46:23.990Z,23.30
2022-08-09T01:48:57.012Z,23.30
2022-08-09T01:51:26.863Z,23.20
2022-08-09T01:54:04.209Z,23.20
2022-08-09T01:56:35.225Z,23.20
2022-08-09T01:59:10.645Z,23.20
2022-08-09T02:02:00.082Z,23.20
2022-08-09T02:04:29.813Z,23.20
2022-08-09T02:07:15.509Z,23.10
2022-08-09T02:10:01.226Z,23.10
2022-08-09T02:12:35.014Z,23.10
2022-08-09T02:15:08.305Z,23.10
2022-08-09T02:18:01.271Z,23.10
2022-08-09T02:20:34.168Z,23.10
2022-08-09T02:23:09.046Z,23.10
2022-08-09T02:25:42.402Z,23.10
2022-08-09T02:28:24.477Z,23.10
2022-08-09T02:31:02.543Z,23.10
2022-08-09T02:33:58.157Z,23.00
2022-08-09T02:36:32.777Z,23.00
2022-08-09T02:39:05.601Z,23.00
2022-08-09T02:41:41.861Z,23.00
2022-08-09T02:44:25.569Z,23.00
2022-08-09T02:47:02.663Z,23.00
2022-08-09T02:49:38.988Z,23.00
2022-08-09T02:52:12.862Z,23.00
2022-08-09T02:54:53.881Z,23.00
2022-08-09T02:57:25.221Z,23.00
2022-08-09T03:00:21.133Z,22.90
2022-08-09T03:02:59.795Z,22.90
2022-08-09T03:05:34.398Z,22.90
2022-08-09T03:08:05.696Z,22.90
2022-08-09T03:10:36.404Z,22.90
2022-08-09T03:13:08.540Z,22.80
2022-08-09T03:16:06.353Z,22.80
2022-08-09T03:18:31.612Z,22.80
2022-08-09T03:21:02.891Z,22.80
2022-08-09T03:23:31.802Z,22.80
2022-08-09T03:26:03.611Z,22.80
2022-08-09T03:28:35.571Z,22.80
2022-08-09T03:31:10.096Z,22.80
2022-08-09T03:33:53.990Z,22.70
2022-08-09T03:36:27.270Z,22.70
2022-08-09T03:38:56.819Z,22.70
2022-08-09T03:41:30.299Z,22.70
2022-08-09T03:44:15.398Z,22.70
2022-08-09T03:46:44.948Z,22.70
2022-08-09T03:49:19.391Z,22.60
2022-08-09T03:52:00.122Z,22.60
2022-08-09T03:54:32.518Z,22.60
2022-08-09T03:57:18.681Z,22.60
2022-08-09T03:59:54.478Z,22.60
2022-08-09T04:02:26.448Z,22.60
2022-08-09T04:04:59.083Z,22.50
2022-08-09T04:07:47.454Z,22.60
2022-08-09T04:10:18.192Z,22.50
2022-08-09T04:12:50.929Z,22.50
2022-08-09T04:15:42.598Z,22.50
2022-08-09T04:18:09.310Z,22.50
2022-08-09T04:20:47.017Z,22.50
2022-08-09T04:23:17.197Z,22.50
2022-08-09T04:25:52.184Z,22.40
2022-08-09T04:28:30.588Z,22.40
2022-08-09T04:31:05.926Z,22.40
2022-08-09T04:33:52.204Z,22.40
2022-08-09T04:36:25.348Z,22.40
2022-08-09T04:38:54.218Z,22.40
2022-08-09T04:41:23.578Z,22.40
2022-08-09T04:44:06.960Z,22.40
2022-08-09T04:46:59.296Z,22.40
2022-08-09T04:49:53.514Z,22.40
2022-08-09T04:52:27.322Z,22.40
2022-08-09T04:54:57.294Z,22.40
2022-08-09T04:57:25.811Z,22.30
2022-08-09T04:59:57.614Z,22.30
2022-08-09T05:02:27.751Z,22.30
2022-08-09T05:04:56.670Z,22.30
2022-08-09T05:07:31.908Z,22.30
2022-08-09T05:10:01.980Z,22.30
2022-08-09T05:12:33.139Z,22.30
2022-08-09T05:15:11.506Z,22.30
2022-08-09T05:18:39.658Z,22.30
2022-08-09T05:20:30.492Z,22.30
2022-08-09T05:23:53.988Z,22.30
2022-08-09T05:25:50.663Z,22.30
2022-08-09T05:28:20.246Z,22.30
2022-08-09T05:30:49.296Z,22.30
2022-08-09T05:33:20.157Z,22.30
2022-08-09T05:35:54.911Z,22.30
2022-08-09T05:38:27.902Z,22.30
2022-08-09T05:40:56.278Z,22.30
2022-08-09T05:43:24.703Z,22.30
2022-08-09T05:45:59.966Z,22.30
2022-08-09T05:48:32.913Z,22.40
2022-08-09T05:51:42.405Z,22.40
2022-08-09T05:53:57.321Z,22.30
2022-08-09T05:56:28.315Z,22.30
2022-08-09T05:58:59.075Z,22.40
2022-08-09T06:01:33.590Z,22.40
2022-08-09T06:04:05.517Z,22.40
2022-08-09T06:06:35.012Z,22.40
2022-08-09T06:09:09.905Z,22.40
2022-08-09T06:11:51.915Z,22.40
2022-08-09T06:14:26.532Z,22.40
2022-08-09T06:16:57.200Z,22.40
2022-08-09T06:19:27.474Z,22.40
2022-08-09T06:21:58.877Z,22.40
2022-08-09T06:24:29.248Z,22.40
2022-08-09T06:26:57.900Z,22.40
2022-08-09T06:29:26.818Z,22.40
2022-08-09T06:32:17.338Z,22.40
2022-08-09T06:34:44.232Z,22.40
2022-08-09T06:37:14.683Z,22.50
2022-08-09T06:39:59.741Z,22.50
2022-08-09T06:42:30.507Z,22.50
2022-08-09T06:45:00.505Z,22.50
2022-08-09T06:47:48.905Z,22.50
2022-08-09T06:50:31.088Z,22.50
2022-08-09T06:53:00.829Z,22.50
2022-08-09T06:55:33.002Z,22.50
2022-08-09T06:58:04.557Z,22.50
2022-08-09T07:00:50.387Z,22.50
2022-08-09T07:03:28.113Z,22.60
2022-08-09T07:06:03.678Z,22.60
2022-08-09T07:08:34.706Z,22.60
2022-08-09T07:11:07.141Z,22.60
2022-08-09T07:13:45.380Z,22.60
2022-08-09T07:16:41.056Z,22.60
2022-08-09T07:19:15.460Z,22.60
2022-08-09T07:21:55.763Z,22.60
2022-08-09T07:28:19.188Z,22.60
2022-08-09T07:30:55.111Z,22.70
2022-08-09T07:33:23.661Z,22.70
2022-08-09T07:35:54.263Z,22.70
2022-08-09T07:38:23.409Z,22.70
2022-08-09T07:41:08.388Z,22.70
2022-08-09T07:43:55.993Z,22.70
2022-08-09T07:46:27.929Z,22.70
2022-08-09T07:48:59.573Z,22.70
2022-08-09T07:52:05.013Z,22.80
2022-08-09T07:54:28.292Z,22.80
2022-08-09T07:56:59.369Z,22.80
2022-08-09T07:59:34.357Z,22.80
2022-08-09T08:02:19.401Z,22.80
2022-08-09T08:04:49.420Z,22.80
2022-08-09T08:10:30.199Z,22.80
2022-08-09T08:13:03.717Z,22.90
2022-08-09T08:15:37.729Z,22.90
2022-08-09T08:18:07.732Z,22.90
2022-08-09T08:20:37.622Z,22.90
2022-08-09T08:23:17.004Z,23.00
2022-08-09T08:25:48.192Z,22.90
2022-08-09T08:28:26.236Z,23.00
2022-08-09T08:31:14.154Z,22.90
2022-08-09T08:33:52.814Z,23.00
2022-08-09T08:36:29.076Z,23.00
2022-08-09T08:38:58.295Z,23.00
2022-08-09T08:41:42.092Z,23.00
2022-08-09T08:44:16.263Z,23.00
2022-08-09T08:47:02.960Z,23.00
2022-08-09T08:49:48.256Z,23.00
2022-08-09T08:55:08.481Z,23.10
2022-08-09T08:57:37.460Z,23.10
2022-08-09T09:00:20.408Z,23.10
2022-08-09T09:02:53.636Z,23.10
2022-08-09T09:05:57.460Z,23.10
2022-08-09T09:08:29.764Z,23.20
2022-08-09T09:11:05.645Z,23.20
2022-08-09T09:13:55.158Z,23.10
2022-08-09T09:16:30.171Z,23.20
2022-08-09T09:19:36.903Z,23.20
2022-08-09T09:22:03.685Z,23.20
2022-08-09T09:24:35.234Z,23.30
2022-08-09T09:27:08.542Z,23.30
2022-08-09T09:30:10.726Z,23.30
2022-08-09T09:32:32.279Z,23.30
2022-08-09T09:35:09.265Z,23.30
2022-08-09T09:37:40.329Z,23.40
2022-08-09T09:40:11.702Z,23.40
2022-08-09T09:42:42.887Z,23.40
2022-08-09T09:45:26.540Z,23.40
2022-08-09T09:47:59.084Z,23.50
2022-08-09T09:50:51.004Z,23.50
2022-08-09T09:53:25.047Z,23.50
2022-08-09T09:56:30.907Z,23.50
2022-08-09T09:58:58.895Z,23.50
2022-08-09T10:01:31.628Z,23.50
2022-08-09T10:04:13.882Z,23.50
2022-08-09T10:06:52.014Z,23.50
2022-08-09T10:09:24.028Z,23.60
2022-08-09T10:12:14.424Z,23.60
2022-08-09T10:14:49.048Z,23.60
2022-08-09T10:17:38.874Z,23.60
2022-08-09T10:20:27.701Z,23.60
2022-08-09T10:23:20.359Z,23.70
2022-08-09T10:26:06.267Z,23.70
2022-08-09T10:28:39.038Z,23.70
2022-08-09T10:34:08.481Z,23.70
2022-08-09T10:36:39.954Z,23.70
2022-08-09T10:39:16.118Z,23.70
2022-08-09T10:41:48.597Z,23.70
2022-08-09T10:44:21.581Z,23.80
2022-08-09T10:48:12.581Z,23.80
2022-08-09T10:50:14.981Z,23.80
2022-08-09T10:53:21.302Z,23.80
2022-08-09T10:56:22.957Z,23.90
2022-08-09T10:58:51.923Z,23.90
2022-08-09T11:03:27.527Z,23.90
2022-08-09T11:04:31.344Z,23.90
2022-08-09T11:07:58.529Z,23.90
2022-08-09T11:10:18.264Z,23.90
2022-08-09T11:13:21.733Z,23.90
2022-08-09T11:16:35.794Z,24.00
2022-08-09T11:19:09.294Z,24.00
2022-08-09T11:21:55.272Z,24.00
2022-08-09T11:24:26.688Z,24.10
2022-08-09T11:26:57.915Z,24.10
2022-08-09T11:30:05.595Z,24.10
2022-08-09T11:32:47.599Z,24.10
2022-08-09T11:35:26.339Z,24.20
2022-08-09T11:38:16.470Z,24.20
2022-08-09T11:40:46.592Z,24.20
2022-08-09T11:43:17.310Z,24.30
2022-08-09T11:45:57.936Z,24.30
2022-08-09T11:48:29.861Z,24.30
2022-08-09T11:52:53.724Z,24.30
2022-08-09T11:54:28.881Z,24.40
2022-08-09T11:57:48.019Z,24.40
2022-08-09T12:00:30.935Z,24.40
2022-08-09T12:03:31.718Z,24.50
2022-08-09T12:05:52.965Z,24.50
2022-08-09T12:08:23.579Z,24.50
2022-08-09T12:10:55.866Z,24.50
2022-08-09T12:14:08.966Z,24.60
2022-08-09T12:16:37.455Z,24.60
2022-08-09T12:19:11.376Z,24.60
2022-08-09T12:21:50.887Z,24.60
2022-08-09T12:24:24.994Z,24.70
2022-08-09T12:29:10.729Z,24.70
2022-08-09T12:30:04.216Z,24.70
2022-08-09T12:32:44.534Z,24.80
2022-08-09T12:35:19.443Z,24.90
2022-08-09T12:37:52.305Z,24.90
2022-08-09T12:40:26.731Z,24.90
2022-08-09T12:42:56.163Z,25.00
2022-08-09T12:45:32.764Z,25.00
2022-08-09T12:48:06.248Z,25.10
2022-08-09T12:50:41.423Z,25.10
2022-08-09T12:53:35.036Z,25.20
2022-08-09T12:56:14.539Z,25.30
2022-08-09T12:59:10.749Z,25.30
2022-08-09T13:01:48.776Z,25.40
2022-08-09T13:04:27.539Z,25.40
2022-08-09T13:07:14.020Z,25.50
2022-08-09T13:09:55.651Z,25.50
2022-08-09T13:12:29.270Z,25.60
2022-08-09T13:15:07.242Z,25.60
2022-08-09T13:18:02.948Z,25.70
2022-08-09T13:20:37.550Z,25.70
2022-08-09T13:24:16.497Z,25.80
2022-08-09T13:26:10.185Z,25.80
2022-08-09T13:28:39.719Z,25.80
2022-08-09T13:32:15.869Z,25.90
2022-08-09T13:33:57.848Z,25.90
2022-08-09T13:36:40.610Z,26.00
2022-08-09T13:41:21.288Z,26.00
2022-08-09T13:42:02.586Z,26.00
2022-08-09T13:44:31.947Z,26.10
2022-08-09T13:47:16.906Z,26.20
2022-08-09T13:49:57.170Z,26.20
2022-08-09T13:52:26.720Z,26.30
2022-08-09T13:55:00.820Z,26.30
2022-08-09T13:57:36.399Z,26.40
2022-08-09T14:00:12.239Z,26.40
2022-08-09T14:03:02.957Z,26.70
2022-08-09T14:05:56.478Z,26.50
2022-08-09T14:08:20.772Z,26.60
2022-08-09T14:10:53.146Z,26.60
2022-08-09T14:13:27.861Z,26.70
2022-08-09T14:16:14.855Z,26.70
2022-08-09T14:18:49.727Z,26.80
2022-08-09T14:21:20.167Z,26.80
2022-08-09T14:23:54.977Z,26.90
2022-08-09T14:26:32.825Z,27.00
2022-08-09T14:29:08.146Z,27.00
2022-08-09T14:31:53.904Z,27.00
2022-08-09T14:34:32.261Z,27.10
2022-08-09T14:37:07.446Z,27.10
2022-08-09T14:39:45.468Z,27.20
2022-08-09T14:42:30.233Z,27.20
2022-08-09T14:46:55.116Z,27.20
2022-08-09T14:47:57.080Z,27.30
2022-08-09T14:50:28.793Z,27.40
2022-08-09T14:52:57.610Z,27.50
2022-08-09T14:55:29.255Z,27.50
2022-08-09T14:58:03.216Z,27.60
2022-08-09T15:00:33.440Z,27.60
2022-08-09T15:03:03.601Z,27.60
2022-08-09T15:05:32.760Z,27.60
2022-08-09T15:08:01.455Z,27.70
2022-08-09T15:10:32.426Z,27.70
2022-08-09T15:13:03.662Z,27.80
2022-08-09T15:15:34.318Z,27.90
2022-08-09T15:18:12.399Z,27.90
2022-08-09T15:21:57.233Z,28.00
2022-08-09T15:24:03.764Z,28.10
2022-08-09T15:26:31.097Z,28.20
2022-08-09T15:29:04.549Z,28.30
2022-08-09T15:31:41.607Z,28.40
2022-08-09T15:34:32.057Z,28.60
2022-08-09T15:37:01.187Z,28.70
2022-08-09T15:39:44.039Z,28.90
2022-08-09T15:42:21.824Z,29.20
2022-08-09T15:44:51.613Z,29.40
2022-08-09T15:47:21.565Z,29.60
2022-08-09T15:50:04.358Z,29.80
2022-08-09T15:52:35.225Z,30.00
2022-08-09T15:55:04.173Z,30.30
2022-08-09T15:57:34.666Z,30.50
2022-08-09T16:00:13.903Z,30.70
2022-08-09T16:02:53.378Z,31.00
2022-08-09T16:05:24.654Z,31.30
2022-08-09T16:07:53.035Z,31.60
2022-08-09T16:10:55.170Z,31.80
2022-08-09T16:13:18.505Z,32.00
2022-08-09T16:16:11.343Z,32.10
2022-08-09T16:18:45.057Z,32.20
2022-08-09T16:21:17.195Z,32.20
2022-08-09T16:23:58.682Z,32.20
2022-08-09T16:26:34.940Z,32.10
2022-08-09T16:29:11.332Z,32.00
2022-08-09T16:32:20.546Z,31.90
2022-08-09T16:34:55.549Z,31.80
2022-08-09T16:37:55.510Z,31.70
2022-08-09T16:40:10.770Z,31.50
2022-08-09T16:42:44.928Z,31.40
2022-08-09T16:45:17.387Z,31.30
2022-08-09T16:48:38.347Z,31.10
2022-08-09T16:50:38.416Z,31.00
2022-08-09T16:53:09.025Z,30.90
2022-08-09T16:55:57.620Z,30.70
2022-08-09T16:58:27.142Z,30.70
2022-08-09T17:00:55.383Z,30.60
2022-08-09T17:03:25.198Z,30.50
2022-08-09T17:06:07.434Z,30.40
2022-08-09T17:09:01.413Z,30.30
2022-08-09T17:11:41.875Z,30.30
2022-08-09T17:14:25.901Z,30.20
2022-08-09T17:17:00.076Z,30.10
2022-08-09T17:19:46.708Z,30.00
2022-08-09T17:22:25.075Z,30.00
2022-08-09T17:25:10.173Z,29.90
2022-08-09T17:27:48.856Z,29.90
2022-08-09T17:30:19.778Z,29.80
2022-08-09T17:32:48.862Z,29.70
2022-08-09T17:35:18.448Z,29.60
2022-08-09T17:38:11.603Z,29.60
2022-08-09T17:40:35.920Z,29.50
2022-08-09T17:43:32.930Z,29.50
2022-08-09T17:46:03.490Z,29.40
2022-08-09T17:48:34.888Z,29.30
2022-08-09T17:51:19.407Z,29.30
2022-08-09T17:53:51.846Z,29.20
2022-08-09T17:56:21.373Z,29.10
2022-08-09T17:58:49.702Z,29.00
2022-08-09T18:01:23.203Z,29.00
2022-08-09T18:03:54.509Z,28.90
2022-08-09T18:06:32.420Z,28.80
2022-08-09T18:09:03.821Z,28.80
2022-08-09T18:12:05.480Z,28.70
2022-08-09T18:14:22.890Z,28.60
2022-08-09T18:16:53.089Z,28.50
2022-08-09T18:20:55.834Z,28.50
2022-08-09T18:22:17.349Z,28.40
2022-08-09T18:24:47.689Z,28.30
2022-08-09T18:28:01.907Z,28.30
2022-08-09T18:30:38.914Z,28.20
2022-08-09T18:32:54.987Z,28.10
2022-08-09T18:35:56.253Z,28.10
2022-08-09T18:38:14.130Z,28.00
2022-08-09T18:40:44.922Z,28.00
2022-08-09T18:43:13.856Z,28.00
2022-08-09T18:46:47.571Z,27.90
2022-08-09T18:48:34.125Z,27.90
2022-08-09T18:51:03.905Z,27.90
2022-08-09T18:53:36.714Z,27.80
2022-08-09T18:56:27.989Z,27.80
2022-08-09T18:58:57.217Z,27.70
2022-08-09T19:01:28.512Z,27.70
2022-08-09T19:04:12.027Z,27.70
2022-08-09T19:06:48.803Z,27.60
2022-08-09T19:10:12.897Z,27.60
2022-08-09T19:12:09.660Z,27.60
2022-08-09T19:14:39.183Z,27.50
2022-08-09T19:17:11.639Z,27.50
2022-08-09T19:19:42.287Z,27.50
2022-08-09T19:22:12.063Z,27.40
2022-08-09T19:25:07.257Z,27.40
2022-08-09T19:27:34.813Z,27.40
2022-08-09T19:30:24.607Z,27.40
2022-08-09T19:32:53.230Z,27.30
2022-08-09T19:35:26.260Z,27.30
2022-08-09T19:37:57.874Z,27.30
2022-08-09T19:40:33.957Z,27.30
2022-08-09T19:43:05.366Z,27.30
2022-08-09T19:45:39.235Z,27.20
2022-08-09T19:48:10.861Z,27.20
2022-08-09T19:50:50.946Z,27.10
2022-08-09T19:53:22.487Z,27.10
2022-08-09T19:56:03.141Z,27.10
2022-08-09T19:58:35.802Z,27.10
2022-08-09T20:01:04.567Z,27.10
2022-08-09T20:04:11.717Z,27.10
2022-08-09T20:06:31.357Z,27.10
2022-08-09T20:09:44.416Z,27.00
2022-08-09T20:12:03.344Z,27.00
2022-08-09T20:14:34.060Z,27.00
2022-08-09T20:17:12.045Z,27.00
2022-08-09T20:19:47.853Z,26.90
2022-08-09T20:22:18.526Z,26.90
2022-08-09T20:24:53.266Z,26.90
2022-08-09T20:27:24.231Z,26.90
2022-08-09T20:29:58.775Z,26.90
2022-08-09T20:32:33.355Z,26.90
2022-08-09T20:35:07.415Z,27.10
2022-08-09T20:37:37.342Z,26.80
2022-08-09T20:40:34.981Z,26.80
2022-08-09T20:43:19.236Z,26.80
2022-08-09T20:46:15.313Z,26.80
2022-08-09T20:48:47.255Z,26.70
2022-08-09T20:51:26.012Z,26.80
2022-08-09T20:54:24.773Z,26.70
2022-08-09T20:56:56.297Z,26.70
2022-08-09T21:00:19.505Z,26.70
2022-08-09T21:02:36.812Z,26.60
2022-08-09T21:05:50.730Z,26.60
2022-08-09T21:08:03.979Z,26.60
2022-08-09T21:10:32.783Z,26.60
2022-08-09T21:13:12.326Z,26.60
2022-08-09T21:15:52.024Z,26.60
2022-08-09T21:18:31.112Z,26.60
2022-08-09T21:21:17.425Z,26.50
2022-08-09T21:23:51.760Z,26.50
2022-08-09T21:26:20.038Z,26.50
2022-08-09T21:28:55.818Z,26.50
2022-08-09T21:31:48.849Z,26.50
2022-08-09T21:34:21.048Z,26.40
2022-08-09T21:36:57.262Z,26.40
2022-08-09T21:39:27.915Z,26.40
2022-08-09T21:42:10.796Z,26.30
2022-08-09T21:44:39.318Z,26.40
2022-08-09T21:47:17.461Z,26.30
2022-08-09T21:49:46.673Z,26.30
2022-08-09T21:52:20.305Z,26.30
2022-08-09T21:54:50.763Z,26.30
2022-08-09T21:57:39.585Z,26.30
2022-08-09T22:00:25.979Z,26.30
2022-08-09T22:02:58.794Z,26.20
2022-08-09T22:05:37.002Z,26.20
2022-08-09T22:08:13.156Z,26.20
2022-08-09T22:11:49.948Z,26.20
2022-08-09T22:13:31.570Z,26.20
2022-08-09T22:16:04.110Z,26.20
2022-08-09T22:18:33.653Z,26.10
2022-08-09T22:21:01.831Z,26.10
2022-08-09T22:23:35.571Z,26.10
2022-08-09T22:26:34.142Z,26.10
2022-08-09T22:29:05.315Z,26.10
2022-08-09T22:31:36.084Z,26.10
2022-08-09T22:34:09.639Z,26.00
2022-08-09T22:36:46.066Z,26.00
2022-08-09T22:39:47.091Z,26.00
2022-08-09T22:42:06.052Z,26.00
2022-08-09T22:44:45.628Z,26.00
2022-08-09T22:48:12.120Z,26.00
2022-08-09T22:50:03.741Z,26.00
2022-08-09T22:52:32.079Z,26.00
2022-08-09T22:55:00.368Z,26.00
2022-08-09T22:57:31.582Z,26.00
2022-08-09T23:00:04.498Z,26.00
2022-08-09T23:02:34.499Z,25.70
2022-08-09T23:05:09.365Z,26.00
2022-08-09T23:08:22.861Z,26.00
2022-08-09T23:10:44.063Z,25.90
2022-08-09T23:13:13.772Z,25.90
2022-08-09T23:15:42.119Z,25.90
2022-08-09T23:18:10.295Z,25.80
2022-08-09T23:20:39.859Z,25.80
2022-08-09T23:23:08.032Z,25.80
2022-08-09T23:25:36.263Z,25.80
2022-08-09T23:28:14.889Z,25.80
2022-08-09T23:30:51.344Z,25.80
2022-08-09T23:33:20.942Z,25.80
2022-08-09T23:36:06.193Z,25.80
2022-08-09T23:38:49.270Z,25.80
2022-08-09T23:41:28.489Z,25.80
2022-08-09T23:43:58.790Z,25.70
2022-08-09T23:46:27.183Z,25.70
2022-08-09T23:48:55.322Z,25.70
2022-08-09T23:51:24.966Z,25.70
2022-08-09T23:53:55.431Z,25.70
2022-08-09T23:56:52.028Z,25.60
2022-08-09T23:59:21.371Z,25.60
